Etusivu
METAR-TAF:

METAR-TAF

Lentoasemat :

Stennis International Airport

Bay St. Louis, Mississippi, Yhdysvallat

Leveyspiiri: 30-22-04N, Pituuspiiri: 089-27-17W, korkeus merenpinnasta: 7 m

Tämänhetkinen sää

Tämä raportti tehtiin 50 minuuttia sitten, kello 13.50 UTC
Tuuli 5 kn pohjoisen/luoteesta
Lämpötila 17°C
Kosteus 82%
Ilmanpaine 1008 hPa
Näkyvyys: 16.1 km
Pilvistä 1200 ft:n korkeudessa

METAR: KHSA 191350Z 34005KT 10SM OVC012 17/14 A2977

Aika: 09:40 (14:40 UTC)


TAF: puuttuu

Säähavainnot ja -ennusteet yli 4000 lentoasemalta (METAR- ja TAF-raportit).

Käytössä olevat sääasemat on merkitty karttaan keltaisilla ja punaisilla pisteillä.

Aseta hiiri pisteen päälle nähdäksesi sääaseman nimen.

Klikkaa sitten nähdäksesi säähavainnot ja -ennusteet.

Kartan vaihtaminen: klikkaa mustalla rastilla varustettuja vihreitä pisteitä, niin voit zoomata sisään; viivalla varustettua vihreää pistettä, niin voit zoomata ulos tai vihreitä nuolia, niin pääset viereisille kartoille.


METAR-TAF: